createdAt,value
2022-09-29T00:01:50.689Z,79.80
2022-09-29T00:04:20.871Z,79.77
2022-09-29T00:06:51.015Z,79.51
2022-09-29T00:09:21.194Z,79.83
2022-09-29T00:11:51.284Z,79.94
2022-09-29T00:14:21.325Z,79.62
2022-09-29T00:16:51.629Z,79.84
2022-09-29T00:19:21.908Z,79.53
2022-09-29T00:21:52.777Z,79.85
2022-09-29T00:24:23.086Z,79.68
2022-09-29T00:26:54.016Z,80.03
2022-09-29T00:29:24.945Z,79.74
2022-09-29T00:31:56.016Z,80.02
2022-09-29T00:34:26.254Z,79.87
2022-09-29T00:36:56.746Z,79.75
2022-09-29T00:39:27.805Z,79.70
2022-09-29T00:41:59.937Z,79.68
2022-09-29T00:45:01.140Z,79.83
2022-09-29T00:47:34.418Z,80.12
2022-09-29T00:50:17.731Z,79.89
2022-09-29T00:52:58.861Z,80.19
2022-09-29T00:55:39.557Z,80.26
2022-09-29T00:58:30.182Z,80.41
2022-09-29T01:01:01.094Z,80.07
2022-09-29T01:03:39.534Z,79.92
2022-09-29T01:06:17.705Z,80.48
2022-09-29T01:09:05.437Z,80.09
2022-09-29T01:11:36.573Z,80.43
2022-09-29T01:14:11.740Z,80.36
2022-09-29T01:16:44.084Z,80.40
2022-09-29T01:19:39.538Z,80.17
2022-09-29T01:22:25.288Z,80.48
2022-09-29T01:25:30.892Z,80.49
2022-09-29T01:28:00.956Z,80.64
2022-09-29T01:30:54.593Z,80.52
2022-09-29T01:33:42.430Z,80.59
2022-09-29T01:36:32.436Z,80.81
2022-09-29T01:39:40.951Z,80.76
2022-09-29T01:42:21.862Z,80.52
2022-09-29T01:44:57.092Z,80.75
2022-09-29T01:47:40.300Z,80.52
2022-09-29T01:50:20.523Z,80.91
2022-09-29T01:52:59.239Z,80.72
2022-09-29T01:55:34.293Z,80.60
2022-09-29T01:58:15.515Z,80.59
2022-09-29T02:00:54.679Z,80.84
2022-09-29T02:03:53.544Z,80.56
2022-09-29T02:06:31.404Z,80.72
2022-09-29T02:09:07.807Z,80.86
2022-09-29T02:11:42.939Z,80.78
2022-09-29T02:14:13.254Z,81.05
2022-09-29T02:17:06.384Z,80.72
2022-09-29T02:19:41.868Z,80.91
2022-09-29T02:22:12.934Z,80.90
2022-09-29T02:24:44.494Z,81.01
2022-09-29T02:27:15.452Z,81.09
2022-09-29T02:29:47.077Z,81.33
2022-09-29T02:32:17.399Z,81.25
2022-09-29T02:34:52.247Z,81.42
2022-09-29T02:37:31.698Z,81.36
2022-09-29T02:40:17.366Z,81.33
2022-09-29T02:43:13.065Z,81.43
2022-09-29T02:46:25.141Z,81.61
2022-09-29T02:49:11.855Z,81.36
2022-09-29T02:51:49.658Z,80.93
2022-09-29T02:54:43.611Z,81.12
2022-09-29T02:57:27.907Z,81.19
2022-09-29T03:00:12.363Z,81.15
2022-09-29T03:02:45.843Z,80.98
2022-09-29T03:05:22.605Z,80.99
2022-09-29T03:07:53.469Z,81.19
2022-09-29T03:10:26.914Z,81.41
2022-09-29T03:13:00.284Z,81.17
2022-09-29T03:15:30.988Z,81.14
2022-09-29T03:18:01.861Z,81.18
2022-09-29T03:20:32.049Z,80.95
2022-09-29T03:23:02.660Z,81.16
2022-09-29T03:25:33.883Z,81.34
2022-09-29T03:28:04.480Z,81.17
2022-09-29T03:30:35.620Z,81.58
2022-09-29T03:33:06.808Z,81.74
2022-09-29T03:35:38.210Z,81.40
2022-09-29T03:38:09.980Z,81.65
2022-09-29T03:40:40.747Z,81.68
2022-09-29T03:43:11.455Z,81.69
2022-09-29T03:45:50.422Z,81.70
2022-09-29T03:48:21.890Z,81.83
2022-09-29T03:50:56.485Z,82.01
2022-09-29T03:53:27.209Z,81.93
2022-09-29T03:55:58.072Z,81.82
2022-09-29T03:58:28.999Z,81.95
2022-09-29T04:01:00.019Z,81.94
2022-09-29T04:03:31.961Z,81.79
2022-09-29T04:06:02.733Z,81.92
2022-09-29T04:08:33.501Z,82.00
2022-09-29T04:11:03.761Z,82.05
2022-09-29T04:13:34.544Z,82.12
2022-09-29T04:16:08.599Z,82.04
2022-09-29T04:18:40.185Z,81.98
2022-09-29T04:21:11.996Z,82.08
2022-09-29T04:23:42.718Z,82.06
2022-09-29T04:26:13.405Z,81.69
2022-09-29T04:28:44.605Z,82.12
2022-09-29T04:31:15.340Z,82.07
2022-09-29T04:33:45.648Z,81.88
2022-09-29T04:36:16.463Z,81.96
2022-09-29T04:38:46.891Z,82.31
2022-09-29T04:41:17.165Z,82.29
2022-09-29T04:43:47.774Z,82.11
2022-09-29T04:46:18.218Z,81.90
2022-09-29T04:48:49.083Z,81.98
2022-09-29T04:51:19.905Z,81.74
2022-09-29T04:53:50.195Z,81.87
2022-09-29T04:56:20.616Z,81.89
2022-09-29T04:58:50.913Z,81.96
2022-09-29T05:01:21.198Z,82.04
2022-09-29T05:03:51.939Z,81.84
2022-09-29T05:06:22.726Z,81.99
2022-09-29T05:08:53.502Z,82.54
2022-09-29T05:11:24.247Z,82.13
2022-09-29T05:13:55.113Z,82.57
2022-09-29T05:16:25.905Z,82.58
2022-09-29T05:18:56.609Z,82.90
2022-09-29T05:21:29.160Z,82.67
2022-09-29T05:24:00.425Z,82.49
2022-09-29T05:26:30.722Z,82.39
2022-09-29T05:29:00.905Z,82.34
2022-09-29T05:31:31.736Z,82.68
2022-09-29T05:34:02.701Z,82.70
2022-09-29T05:36:33.042Z,82.58
2022-09-29T05:39:03.933Z,82.33
2022-09-29T05:41:34.688Z,82.28
2022-09-29T05:44:05.564Z,82.41
2022-09-29T05:46:36.270Z,82.28
2022-09-29T05:49:06.545Z,82.40
2022-09-29T05:51:37.252Z,82.38
2022-09-29T05:54:07.823Z,82.44
2022-09-29T05:56:40.704Z,82.38
2022-09-29T05:59:13.591Z,82.15
2022-09-29T06:01:43.906Z,82.40
2022-09-29T06:04:15.118Z,82.61
2022-09-29T06:06:46.061Z,82.63
2022-09-29T06:09:16.859Z,82.72
2022-09-29T06:11:46.901Z,82.46
2022-09-29T06:14:16.990Z,82.65
2022-09-29T06:16:47.193Z,82.45
2022-09-29T06:19:17.549Z,82.43
2022-09-29T06:21:47.867Z,82.27
2022-09-29T06:24:18.020Z,82.46
2022-09-29T06:26:48.659Z,82.79
2022-09-29T06:29:19.123Z,82.86
2022-09-29T06:31:53.109Z,82.84
2022-09-29T06:34:23.369Z,82.80
2022-09-29T06:37:11.669Z,82.30
2022-09-29T06:39:42.303Z,82.60
2022-09-29T06:42:13.543Z,82.49
2022-09-29T06:44:44.313Z,82.69
2022-09-29T06:47:14.685Z,82.55
2022-09-29T06:49:52.063Z,82.23
2022-09-29T06:52:30.106Z,82.25
2022-09-29T06:55:00.502Z,82.33
2022-09-29T06:57:30.934Z,82.14
2022-09-29T07:00:01.210Z,81.87
2022-09-29T07:02:31.929Z,81.91
2022-09-29T07:05:02.621Z,82.03
2022-09-29T07:07:33.442Z,82.11
2022-09-29T07:10:04.580Z,82.32
2022-09-29T07:12:35.788Z,82.45
2022-09-29T07:15:06.401Z,82.41
2022-09-29T07:17:37.514Z,82.43
2022-09-29T07:20:08.848Z,82.50
2022-09-29T07:22:39.342Z,82.74
2022-09-29T07:25:09.905Z,82.68
2022-09-29T07:27:55.240Z,82.72
2022-09-29T07:30:35.606Z,82.64
2022-09-29T07:33:08.689Z,82.82
2022-09-29T07:35:40.081Z,82.88
2022-09-29T07:38:10.250Z,82.83
2022-09-29T07:40:40.185Z,82.92
2022-09-29T07:43:10.620Z,82.76
2022-09-29T07:45:40.650Z,82.68
2022-09-29T07:48:10.809Z,82.47
2022-09-29T07:50:40.784Z,82.71
2022-09-29T07:53:11.555Z,82.75
2022-09-29T07:55:41.982Z,82.78
2022-09-29T07:58:12.027Z,82.21
2022-09-29T08:00:42.527Z,82.39
2022-09-29T08:03:13.145Z,82.51
2022-09-29T08:05:44.144Z,82.22
2022-09-29T08:08:14.124Z,82.29
2022-09-29T08:10:51.785Z,82.58
2022-09-29T08:13:23.577Z,82.38
2022-09-29T08:16:01.397Z,82.60
2022-09-29T08:18:33.435Z,82.56
2022-09-29T08:21:04.185Z,82.32
2022-09-29T08:23:45.686Z,82.20
2022-09-29T08:26:31.110Z,82.28
2022-09-29T08:29:08.586Z,81.81
2022-09-29T08:31:42.945Z,81.92
2022-09-29T08:34:13.205Z,81.75
2022-09-29T08:36:43.569Z,81.61
2022-09-29T08:39:14.235Z,81.51
2022-09-29T08:42:08.228Z,81.38
2022-09-29T08:44:43.803Z,81.63
2022-09-29T08:47:25.469Z,81.86
2022-09-29T08:50:01.898Z,82.14
2022-09-29T08:52:50.604Z,82.39
2022-09-29T08:55:22.491Z,82.33
2022-09-29T08:58:03.694Z,81.88
2022-09-29T09:00:45.095Z,82.51
2022-09-29T09:03:34.301Z,82.76
2022-09-29T09:06:17.025Z,82.48
2022-09-29T09:09:04.786Z,82.36
2022-09-29T09:11:53.866Z,81.86
2022-09-29T09:14:36.179Z,82.16
2022-09-29T09:17:13.977Z,81.79
2022-09-29T09:20:18.446Z,81.55
2022-09-29T09:23:00.901Z,81.92
2022-09-29T09:25:41.840Z,81.27
2022-09-29T09:28:22.034Z,81.46
2022-09-29T09:31:03.919Z,81.38
2022-09-29T09:34:06.359Z,81.99
2022-09-29T09:37:07.052Z,82.12
2022-09-29T09:39:40.718Z,81.81
2022-09-29T09:42:20.625Z,81.90
2022-09-29T09:45:01.626Z,81.79
2022-09-29T09:47:37.905Z,81.96
2022-09-29T09:50:19.419Z,81.67
2022-09-29T09:52:59.485Z,81.62
2022-09-29T09:55:37.132Z,81.66
2022-09-29T09:58:35.803Z,81.59
2022-09-29T10:01:09.567Z,81.45
2022-09-29T10:03:41.128Z,81.55
2022-09-29T10:06:12.291Z,81.65
2022-09-29T10:08:44.635Z,81.61
2022-09-29T10:11:21.495Z,81.62
2022-09-29T10:14:12.071Z,81.60
2022-09-29T10:17:12.606Z,81.61
2022-09-29T10:20:08.862Z,81.31
2022-09-29T10:22:39.253Z,81.33
2022-09-29T10:25:20.941Z,81.63
2022-09-29T10:27:55.348Z,81.54
2022-09-29T10:30:37.761Z,81.88
2022-09-29T10:33:10.539Z,81.38
2022-09-29T10:35:47.712Z,81.43
2022-09-29T10:38:27.641Z,81.40
2022-09-29T10:41:00.856Z,81.36
2022-09-29T10:43:37.045Z,81.32
2022-09-29T10:46:09.208Z,81.28
2022-09-29T10:48:39.309Z,81.00
2022-09-29T10:51:27.731Z,81.25
2022-09-29T10:53:57.774Z,80.96
2022-09-29T10:56:31.813Z,81.15
2022-09-29T10:59:05.977Z,81.34
2022-09-29T11:01:52.469Z,81.21
2022-09-29T11:04:34.660Z,81.31
2022-09-29T11:07:12.407Z,81.46
2022-09-29T11:09:47.476Z,81.19
2022-09-29T11:12:38.029Z,81.12
2022-09-29T11:15:29.222Z,81.06
2022-09-29T11:18:00.006Z,81.59
2022-09-29T11:20:36.869Z,81.36
2022-09-29T11:23:35.364Z,81.11
2022-09-29T11:26:44.018Z,81.46
2022-09-29T11:29:25.998Z,81.37
2022-09-29T11:32:13.713Z,81.36
2022-09-29T11:34:56.452Z,81.66
2022-09-29T11:37:51.974Z,81.58
2022-09-29T11:40:47.548Z,81.47
2022-09-29T11:43:54.443Z,81.74
2022-09-29T11:46:50.671Z,81.61
2022-09-29T11:49:39.278Z,81.98
2022-09-29T11:52:15.302Z,81.79
2022-09-29T11:54:51.973Z,81.94
2022-09-29T11:57:48.492Z,81.77
2022-09-29T12:00:21.475Z,82.08
2022-09-29T12:03:06.988Z,81.97
2022-09-29T12:05:45.833Z,81.79
2022-09-29T12:08:29.415Z,81.91
2022-09-29T12:11:47.514Z,81.88
2022-09-29T12:14:23.679Z,81.92
2022-09-29T12:16:59.760Z,81.84
2022-09-29T12:19:34.369Z,82.09
2022-09-29T12:22:06.211Z,81.99
2022-09-29T12:24:41.679Z,82.07
2022-09-29T12:27:40.129Z,82.01
2022-09-29T12:30:32.832Z,82.07
2022-09-29T12:33:16.083Z,82.38
2022-09-29T12:36:36.117Z,82.53
2022-09-29T12:39:20.741Z,82.25
2022-09-29T12:41:58.343Z,82.10
2022-09-29T12:44:40.745Z,82.11
2022-09-29T12:47:54.490Z,82.27
2022-09-29T12:50:45.090Z,82.15
2022-09-29T12:53:55.208Z,82.17
2022-09-29T12:56:33.056Z,82.96
2022-09-29T12:59:11.667Z,82.27
2022-09-29T13:01:42.535Z,82.37
2022-09-29T13:04:44.523Z,82.35
2022-09-29T13:07:32.983Z,82.42
2022-09-29T13:10:27.977Z,82.97
2022-09-29T13:13:27.949Z,82.87
2022-09-29T13:16:13.226Z,82.88
2022-09-29T13:19:00.245Z,82.99
2022-09-29T13:22:12.329Z,83.15
2022-09-29T13:25:15.964Z,82.81
2022-09-29T13:27:49.353Z,83.06
2022-09-29T13:30:22.731Z,82.88
2022-09-29T13:33:04.538Z,83.12
2022-09-29T13:35:46.547Z,82.62
2022-09-29T13:38:25.768Z,82.68
2022-09-29T13:41:17.821Z,83.06
2022-09-29T13:43:54.624Z,83.22
2022-09-29T13:46:46.409Z,82.93
2022-09-29T13:49:18.473Z,83.20
2022-09-29T13:51:53.482Z,83.49
2022-09-29T13:54:33.413Z,83.44
2022-09-29T13:57:04.269Z,83.27
2022-09-29T13:59:36.133Z,83.03
2022-09-29T14:02:41.963Z,83.02
2022-09-29T14:05:30.969Z,82.84
2022-09-29T14:08:04.767Z,82.68
2022-09-29T14:10:37.769Z,82.99
2022-09-29T14:13:25.707Z,82.69
2022-09-29T14:16:26.772Z,82.45
2022-09-29T14:19:02.929Z,82.58
2022-09-29T14:21:57.492Z,82.55
2022-09-29T14:24:39.829Z,82.53
2022-09-29T14:27:28.307Z,82.43
2022-09-29T14:30:17.958Z,82.14
2022-09-29T14:33:02.136Z,82.48
2022-09-29T14:35:42.156Z,82.43
2022-09-29T14:38:31.851Z,82.26
2022-09-29T14:43:39.464Z,82.59
2022-09-29T14:46:55.426Z,82.59
2022-09-29T14:49:59.103Z,83.10
2022-09-29T14:53:03.634Z,82.21
2022-09-29T14:56:07.016Z,82.16
2022-09-29T14:58:46.927Z,82.09
2022-09-29T15:01:34.494Z,82.23
2022-09-29T15:04:13.797Z,82.46
2022-09-29T15:06:54.627Z,82.47
2022-09-29T15:09:27.221Z,82.55
2022-09-29T15:12:05.063Z,83.07
2022-09-29T15:14:41.555Z,83.06
2022-09-29T15:17:37.536Z,83.55
2022-09-29T15:20:53.392Z,83.57
2022-09-29T15:23:41.979Z,83.60
2022-09-29T15:26:17.418Z,83.54
2022-09-29T15:28:48.029Z,83.82
2022-09-29T15:31:31.062Z,83.78
2022-09-29T15:34:01.187Z,83.95
2022-09-29T15:36:39.989Z,83.90
2022-09-29T15:39:27.924Z,83.81
2022-09-29T15:42:06.380Z,83.99
2022-09-29T15:44:36.278Z,83.97
2022-09-29T15:47:06.131Z,83.52
2022-09-29T15:49:36.206Z,83.99
2022-09-29T15:52:21.054Z,83.83
2022-09-29T15:54:55.610Z,83.76
2022-09-29T15:57:53.195Z,83.84
2022-09-29T16:00:26.275Z,83.98
2022-09-29T16:02:56.234Z,83.91
2022-09-29T16:05:28.348Z,83.91
2022-09-29T16:08:06.213Z,83.83
2022-09-29T16:10:51.071Z,83.66
2022-09-29T16:13:36.635Z,83.81
2022-09-29T16:16:10.183Z,83.63
2022-09-29T16:18:43.202Z,83.82
2022-09-29T16:21:16.791Z,83.39
2022-09-29T16:24:03.017Z,83.80
2022-09-29T16:26:42.931Z,84.05
2022-09-29T16:29:12.893Z,83.73
2022-09-29T16:31:45.669Z,83.58
2022-09-29T16:34:24.964Z,83.46
2022-09-29T16:36:57.867Z,83.60
2022-09-29T16:39:33.362Z,83.57
2022-09-29T16:42:07.744Z,83.56
2022-09-29T16:44:47.627Z,83.63
2022-09-29T16:47:20.331Z,83.63
2022-09-29T16:49:54.425Z,83.83
2022-09-29T16:52:59.550Z,83.46
2022-09-29T16:55:33.066Z,83.55
2022-09-29T16:58:04.821Z,83.65
2022-09-29T17:00:34.953Z,83.18
2022-09-29T17:03:07.617Z,83.31
2022-09-29T17:05:45.686Z,83.05
2022-09-29T17:08:24.388Z,83.05
2022-09-29T17:10:56.064Z,82.83
2022-09-29T17:13:27.087Z,82.44
2022-09-29T17:15:57.246Z,82.58
2022-09-29T17:18:29.135Z,82.41
2022-09-29T17:20:59.182Z,82.65
2022-09-29T17:23:29.008Z,82.51
2022-09-29T17:26:18.687Z,82.42
2022-09-29T17:28:48.752Z,82.16
2022-09-29T17:31:18.649Z,82.01
2022-09-29T17:33:48.530Z,82.19
2022-09-29T17:36:18.773Z,82.06
2022-09-29T17:38:52.804Z,81.98
2022-09-29T17:41:23.450Z,82.06
2022-09-29T17:43:53.424Z,82.00
2022-09-29T17:46:23.284Z,81.77
2022-09-29T17:48:53.155Z,81.81
2022-09-29T17:51:23.031Z,81.68
2022-09-29T17:53:52.870Z,81.75
2022-09-29T17:56:27.947Z,81.87
2022-09-29T17:59:00.863Z,81.83
2022-09-29T18:01:35.476Z,81.63
2022-09-29T18:04:08.567Z,81.36
2022-09-29T18:06:40.153Z,81.63
2022-09-29T18:09:20.979Z,81.26
2022-09-29T18:11:51.050Z,81.33
2022-09-29T18:14:21.043Z,81.39
2022-09-29T18:16:51.509Z,80.94
2022-09-29T18:19:21.607Z,80.98
2022-09-29T18:21:51.509Z,80.69
2022-09-29T18:24:21.730Z,80.58
2022-09-29T18:26:51.834Z,80.69
2022-09-29T18:29:21.829Z,80.37
2022-09-29T18:31:52.095Z,80.78
2022-09-29T18:34:24.118Z,80.55
2022-09-29T18:36:54.057Z,80.70
2022-09-29T18:39:23.962Z,80.60
2022-09-29T18:41:54.080Z,80.45
2022-09-29T18:44:26.722Z,80.40
2022-09-29T18:46:56.564Z,80.40
2022-09-29T18:49:26.941Z,80.59
2022-09-29T18:51:56.990Z,80.34
2022-09-29T18:54:26.830Z,80.27
2022-09-29T18:56:56.675Z,80.05
2022-09-29T18:59:26.547Z,80.05
2022-09-29T19:01:56.718Z,80.00
2022-09-29T19:04:27.265Z,80.06
2022-09-29T19:06:57.216Z,79.97
2022-09-29T19:09:27.671Z,80.12
2022-09-29T19:11:57.793Z,79.97
2022-09-29T19:14:28.984Z,80.08
2022-09-29T19:16:58.971Z,80.25
2022-09-29T19:19:28.727Z,80.17
2022-09-29T19:21:59.209Z,80.11
2022-09-29T19:24:29.238Z,80.38
2022-09-29T19:26:59.567Z,80.18
2022-09-29T19:29:29.613Z,80.24
2022-09-29T19:31:59.452Z,80.64
2022-09-29T19:34:29.515Z,80.45
2022-09-29T19:36:59.359Z,80.23
2022-09-29T19:39:31.716Z,80.38
2022-09-29T19:42:01.847Z,80.25
2022-09-29T19:44:34.047Z,80.48
2022-09-29T19:47:04.138Z,80.60
2022-09-29T19:49:34.153Z,80.50
2022-09-29T19:52:06.454Z,80.44
2022-09-29T19:54:39.257Z,80.52
2022-09-29T19:57:16.861Z,80.39
2022-09-29T19:59:47.087Z,80.33
2022-09-29T20:02:17.317Z,80.58
2022-09-29T20:04:47.483Z,80.48
2022-09-29T20:07:17.364Z,80.82
2022-09-29T20:09:47.496Z,80.52
2022-09-29T20:12:19.650Z,80.62
2022-09-29T20:14:49.839Z,80.98
2022-09-29T20:17:19.851Z,80.81
2022-09-29T20:19:50.137Z,80.77
2022-09-29T20:22:22.167Z,80.70
2022-09-29T20:24:52.219Z,80.58
2022-09-29T20:27:22.604Z,80.85
2022-09-29T20:29:52.601Z,80.96
2022-09-29T20:32:23.046Z,80.96
2022-09-29T20:34:52.999Z,80.89
2022-09-29T20:37:22.877Z,80.99
2022-09-29T20:39:52.737Z,80.89
2022-09-29T20:42:23.089Z,80.93
2022-09-29T20:44:58.069Z,80.83
2022-09-29T20:47:28.225Z,81.04
2022-09-29T20:49:58.595Z,81.03
2022-09-29T20:52:28.606Z,80.88
2022-09-29T20:55:01.574Z,80.93
2022-09-29T20:57:31.669Z,80.86
2022-09-29T21:00:01.473Z,80.96
2022-09-29T21:02:32.401Z,80.94
2022-09-29T21:05:02.460Z,80.86
2022-09-29T21:07:38.272Z,81.00
2022-09-29T21:10:09.869Z,80.94
2022-09-29T21:12:39.604Z,80.84
2022-09-29T21:15:09.780Z,80.97
2022-09-29T21:17:39.810Z,80.91
2022-09-29T21:20:10.248Z,80.88
2022-09-29T21:22:40.330Z,80.91
2022-09-29T21:25:10.533Z,81.26
2022-09-29T21:27:41.658Z,81.05
2022-09-29T21:30:12.273Z,80.96
2022-09-29T21:32:42.313Z,80.93
2022-09-29T21:35:13.233Z,81.16
2022-09-29T21:37:44.499Z,81.19
2022-09-29T21:40:14.589Z,81.14
2022-09-29T21:42:44.475Z,81.19
2022-09-29T21:45:14.445Z,81.12
2022-09-29T21:48:02.632Z,80.99
2022-09-29T21:50:32.723Z,81.20
2022-09-29T21:53:02.631Z,81.37
2022-09-29T21:55:32.680Z,81.31
2022-09-29T21:58:02.563Z,81.24
2022-09-29T22:00:32.660Z,81.54
2022-09-29T22:03:02.634Z,81.10
2022-09-29T22:05:34.660Z,81.00
2022-09-29T22:08:06.857Z,80.91
2022-09-29T22:10:40.116Z,81.22
2022-09-29T22:13:10.808Z,81.42
2022-09-29T22:15:41.046Z,81.44
2022-09-29T22:18:11.161Z,81.42
2022-09-29T22:20:42.123Z,81.26
2022-09-29T22:23:12.384Z,81.31
2022-09-29T22:25:48.813Z,80.64
2022-09-29T22:28:19.143Z,80.74
2022-09-29T22:30:49.550Z,80.79
2022-09-29T22:33:21.494Z,80.98
2022-09-29T22:35:59.345Z,80.81
2022-09-29T22:38:29.777Z,80.80
2022-09-29T22:41:02.410Z,80.69
2022-09-29T22:46:18.449Z,80.48
2022-09-29T22:48:48.554Z,80.93
2022-09-29T22:51:19.206Z,81.75
2022-09-29T22:53:49.700Z,81.14
2022-09-29T22:56:31.478Z,80.90
2022-09-29T22:59:04.506Z,81.28
2022-09-29T23:01:35.922Z,80.83
2022-09-29T23:04:06.183Z,80.19
2022-09-29T23:07:01.043Z,80.53
2022-09-29T23:09:31.457Z,80.15
2022-09-29T23:12:01.778Z,80.12
2022-09-29T23:14:32.061Z,80.29
2022-09-29T23:17:02.163Z,80.22
2022-09-29T23:19:32.192Z,80.69
2022-09-29T23:22:02.238Z,81.36
2022-09-29T23:24:32.250Z,81.48
2022-09-29T23:27:02.741Z,81.14
2022-09-29T23:29:33.052Z,81.25
2022-09-29T23:32:03.411Z,81.31
2022-09-29T23:34:33.578Z,81.77
2022-09-29T23:37:04.136Z,81.12
2022-09-29T23:39:34.332Z,81.30
2022-09-29T23:42:04.771Z,80.94
2022-09-29T23:44:37.781Z,80.81
2022-09-29T23:47:08.034Z,81.19
2022-09-29T23:49:38.269Z,81.34
2022-09-29T23:52:08.473Z,81.22
2022-09-29T23:54:38.695Z,81.47
2022-09-29T23:57:08.902Z,81.54
2022-09-29T23:59:39.090Z,81.36
